Time;durP1;ratioP1;P1;durP2;ratioP2;P2;SDS_P1;SDS_P2;PMS_P1;PMS_P2;Temp;Humidity;BMP_temperature;BMP_pressure;BME280_temperature;BME280_humidity;BME280_pressure;Samples;Min_cycle;Max_cycle;Signal;HPM_P1;HPM_P2
2024/01/03 07:59:44;;;;;;;1.20;1.10;;;9.80;99.90;;;;;;4866927;29;20891;-82
2024/01/03 08:06:25;;;;;;;3.00;2.13;;;9.80;99.90;;;;;;4980935;28;21008;-81
2024/01/03 08:26:34;;;;;;;2.40;1.00;;;10.00;99.90;;;;;;4999778;28;20505;-82
2024/01/03 08:43:27;;;;;;;2.90;1.03;;;10.40;99.90;;;;;;5004599;28;20470;-83
2024/01/03 08:47:07;;;;;;;2.23;1.43;;;10.60;99.90;;;;;;5048943;28;20444;-82
2024/01/03 08:50:11;;;;;;;1.37;0.83;;;10.30;99.90;;;;;;5055676;28;20449;-82
2024/01/03 09:03:36;;;;;;;3.20;1.13;;;10.30;99.90;;;;;;5106454;28;20472;-81
2024/01/03 09:31:58;;;;;;;;;;;;;;;;;;;;;
2024/01/03 10:26:07;;;;;;;;;;;;;;;;;;;;;
2024/01/03 11:33:59;;;;;;;;;;;;;;;;;;;;;
2024/01/03 12:00:41;;;;;;;1.20;1.07;;;12.20;99.90;;;;;;4929674;29;20862;-82
2024/01/03 12:04:26;;;;;;;1.40;1.20;;;12.30;99.90;;;;;;4921835;29;20547;-82
2024/01/03 12:14:08;;;;;;;0.60;0.60;;;12.40;99.90;;;;;;4986469;28;20429;-80
2024/01/03 12:21:11;;;;;;;1.60;0.80;;;12.30;99.90;;;;;;4979672;28;20526;-80
2024/01/03 12:38:14;;;;;;;1.67;0.80;;;12.00;99.90;;;;;;4931967;28;20442;-84
2024/01/03 13:09:04;;;;;;;1.30;0.80;;;11.70;99.90;;;;;;5040708;28;20755;-81
2024/01/03 13:17:24;;;;;;;2.73;1.07;;;11.80;99.90;;;;;;5065319;28;20426;-82
2024/01/03 13:23:37;;;;;;;1.20;1.10;;;11.80;99.90;;;;;;5076388;22;21017;-79
2024/01/03 13:26:43;;;;;;;2.00;0.97;;;11.80;99.90;;;;;;5091678;28;20456;-80
2024/01/03 13:29:27;;;;;;;1.13;0.83;;;11.80;99.90;;;;;;5093666;28;20445;-79
2024/01/03 13:32:15;;;;;;;1.90;1.27;;;11.90;99.90;;;;;;5088843;28;20518;-80
2024/01/03 13:38:50;;;;;;;0.90;0.80;;;11.70;99.90;;;;;;5057611;28;20439;-81
2024/01/03 13:42:12;;;;;;;2.60;1.00;;;11.40;99.90;;;;;;5081156;28;20472;-83
2024/01/03 13:44:53;;;;;;;1.63;0.70;;;11.30;99.90;;;;;;5032848;28;21023;-81
2024/01/03 13:47:21;;;;;;;1.30;1.00;;;11.60;99.90;;;;;;5079110;28;20441;-80
2024/01/03 13:49:56;;;;;;;1.53;0.90;;;11.40;99.90;;;;;;5075194;28;20414;-79
2024/01/03 13:52:24;;;;;;;2.53;0.70;;;;;;;;;;5078234;28;20533;-81
2024/01/03 13:55:01;;;;;;;0.80;0.80;;;11.20;99.90;;;;;;5078170;28;20527;-80
2024/01/03 13:57:36;;;;;;;1.70;0.80;;;10.80;99.90;;;;;;5074306;28;20452;-81
2024/01/03 14:00:10;;;;;;;2.93;0.80;;;10.90;99.90;;;;;;5073911;28;20968;-79
2024/01/03 14:02:41;;;;;;;1.13;1.03;;;10.80;99.90;;;;;;5076140;28;20475;-80
2024/01/03 14:05:23;;;;;;;1.27;1.10;;;10.90;99.90;;;;;;5087785;28;20444;-80
2024/01/03 14:07:59;;;;;;;1.90;0.80;;;10.90;99.90;;;;;;5102104;28;20443;-82
2024/01/03 14:10:50;;;;;;;1.00;0.80;;;10.70;99.90;;;;;;5104180;28;20455;-80
2024/01/03 14:13:19;;;;;;;2.80;0.80;;;10.60;99.90;;;;;;5103720;28;20451;-79
2024/01/03 14:15:56;;;;;;;1.80;1.10;;;10.70;99.90;;;;;;5106451;28;20431;-79
2024/01/03 14:18:32;;;;;;;1.23;0.80;;;10.60;99.90;;;;;;5108593;28;20447;-79
2024/01/03 14:21:07;;;;;;;1.30;1.17;;;10.60;99.90;;;;;;5108493;28;20467;-79
2024/01/03 14:23:42;;;;;;;1.10;1.10;;;10.60;99.90;;;;;;5105798;28;20566;-80
2024/01/03 14:26:17;;;;;;;2.73;1.30;;;10.50;99.90;;;;;;5107628;28;20443;-80
2024/01/03 14:28:59;;;;;;;3.17;1.63;;;10.50;99.90;;;;;;5107614;28;20451;-82
2024/01/03 14:31:45;;;;;;;1.50;1.23;;;10.50;99.90;;;;;;5106975;28;20456;-81
2024/01/03 14:34:35;;;;;;;5.70;1.30;;;10.50;99.90;;;;;;5109607;28;20470;-81
2024/01/03 14:37:17;;;;;;;1.70;1.17;;;10.60;99.90;;;;;;5095768;28;20436;-81
2024/01/03 14:40:04;;;;;;;1.53;1.30;;;10.60;99.90;;;;;;5107626;28;21074;-82
2024/01/03 14:43:24;;;;;;;;;;;;;;;;;;;;;
2024/01/03 14:47:09;;;;;;;5.30;1.50;;;10.30;99.90;;;;;;4982790;28;20445;-83
2024/01/03 14:59:27;;;;;;;1.90;1.13;;;10.00;99.90;;;;;;5083291;28;20439;-80
2024/01/03 15:02:09;;;;;;;2.03;1.20;;;10.20;99.90;;;;;;5095746;28;20464;-82
2024/01/03 15:04:52;;;;;;;5.50;1.53;;;9.90;99.90;;;;;;5089700;28;20469;-82
2024/01/03 15:07:27;;;;;;;1.30;1.20;;;10.10;99.90;;;;;;5109663;28;20434;-82
2024/01/03 15:09:55;;;;;;;1.33;1.23;;;10.10;99.90;;;;;;5110770;28;20423;-81
2024/01/03 15:12:23;;;;;;;2.80;1.40;;;10.10;99.90;;;;;;5115835;28;20473;-81
2024/01/03 15:14:51;;;;;;;1.23;1.13;;;10.20;99.90;;;;;;5115207;28;20474;-81
2024/01/03 15:17:23;;;;;;;1.73;1.63;;;10.10;99.90;;;;;;5116529;28;20479;-84
2024/01/03 15:19:56;;;;;;;1.97;1.43;;;10.00;99.90;;;;;;5118198;28;20472;-84
2024/01/03 15:22:32;;;;;;;1.90;1.20;;;10.00;99.90;;;;;;5116235;28;20440;-83
2024/01/03 15:25:03;;;;;;;1.53;1.43;;;10.20;99.90;;;;;;5116524;28;20487;-79
2024/01/03 15:27:37;;;;;;;1.87;1.30;;;10.00;99.90;;;;;;5117690;28;20450;-80
2024/01/03 15:30:16;;;;;;;1.63;1.27;;;9.90;99.90;;;;;;5116191;28;20413;-81
2024/01/03 15:32:48;;;;;;;3.13;1.33;;;9.90;99.90;;;;;;5115717;28;20472;-82
2024/01/03 15:35:22;;;;;;;1.10;1.10;;;9.90;99.90;;;;;;5115100;28;20446;-80
2024/01/03 15:37:52;;;;;;;1.63;1.53;;;9.90;99.90;;;;;;5113536;28;20432;-82
2024/01/03 15:40:24;;;;;;;1.57;0.90;;;9.90;99.90;;;;;;5111027;28;20451;-81
2024/01/03 15:43:00;;;;;;;1.37;1.20;;;9.90;99.90;;;;;;5114757;28;20474;-83
2024/01/03 15:45:45;;;;;;;1.63;1.10;;;9.90;99.90;;;;;;5110750;28;20446;-79
2024/01/03 15:48:15;;;;;;;1.20;1.00;;;9.90;99.90;;;;;;5093466;28;20451;-81
2024/01/03 15:50:51;;;;;;;1.20;1.10;;;9.90;99.90;;;;;;5090310;28;20524;-82
2024/01/03 15:53:21;;;;;;;1.40;1.30;;;9.90;99.90;;;;;;5088407;28;20485;-83
2024/01/03 15:55:59;;;;;;;1.93;1.20;;;9.90;99.90;;;;;;5086370;28;20500;-80
2024/01/03 15:58:26;;;;;;;3.40;1.13;;;9.90;99.90;;;;;;5085711;28;20505;-80
2024/01/03 16:01:09;;;;;;;3.13;1.37;;;9.90;99.90;;;;;;5086768;28;20457;-80
2024/01/03 16:03:53;;;;;;;2.00;1.33;;;9.90;99.90;;;;;;5090509;28;20530;-81
2024/01/03 16:06:34;;;;;;;1.30;1.20;;;9.90;99.90;;;;;;5100161;28;20602;-81
2024/01/03 16:09:13;;;;;;;1.40;1.30;;;9.70;99.90;;;;;;5100678;28;20926;-80
2024/01/03 16:11:48;;;;;;;1.50;1.40;;;9.90;99.90;;;;;;5094688;28;20464;-80
2024/01/03 16:14:44;;;;;;;1.80;1.70;;;10.10;99.90;;;;;;5084378;28;20475;-81
2024/01/03 16:17:36;;;;;;;3.77;1.20;;;9.60;99.90;;;;;;5080477;28;20452;-80
2024/01/03 16:20:19;;;;;;;1.80;1.20;;;9.90;99.90;;;;;;5079132;28;20457;-82
2024/01/03 16:22:50;;;;;;;1.57;1.30;;;9.90;99.90;;;;;;5078943;28;20471;-79
2024/01/03 16:25:29;;;;;;;2.37;1.27;;;10.10;99.90;;;;;;5078030;28;20477;-80
2024/01/03 16:28:01;;;;;;;0.90;0.90;;;9.90;99.90;;;;;;5078531;28;20452;-79
2024/01/03 16:30:28;;;;;;;1.60;0.97;;;9.90;99.90;;;;;;5077444;28;20539;-79
2024/01/03 16:32:55;;;;;;;0.97;0.97;;;10.00;99.90;;;;;;5080904;28;20444;-79
2024/01/03 16:35:28;;;;;;;1.30;1.20;;;10.00;99.90;;;;;;5081637;28;20804;-80
2024/01/03 16:37:58;;;;;;;1.47;1.10;;;10.00;99.90;;;;;;5081552;28;20528;-79
2024/01/03 16:40:34;;;;;;;2.10;1.10;;;10.00;99.90;;;;;;5080434;28;20468;-81
2024/01/03 16:43:10;;;;;;;0.83;0.80;;;10.10;99.90;;;;;;5085886;28;20452;-80
2024/01/03 16:45:43;;;;;;;2.20;1.60;;;10.00;99.90;;;;;;5100657;28;20462;-80
2024/01/03 16:48:22;;;;;;;1.30;1.20;;;10.00;99.90;;;;;;5111904;28;20443;-80
2024/01/03 16:50:53;;;;;;;1.60;1.37;;;10.00;99.90;;;;;;5112538;28;20471;-79
2024/01/03 16:53:25;;;;;;;2.80;1.53;;;10.20;99.90;;;;;;5111993;28;20454;-80
2024/01/03 16:55:55;;;;;;;1.90;1.40;;;10.10;99.90;;;;;;5102850;28;20445;-79
2024/01/03 16:58:30;;;;;;;1.60;1.50;;;9.80;99.90;;;;;;5102158;28;20508;-78
2024/01/03 17:00:58;;;;;;;1.70;1.60;;;10.30;99.90;;;;;;5101213;28;20470;-79
2024/01/03 17:03:45;;;;;;;1.67;1.40;;;10.20;99.90;;;;;;5102738;28;20436;-80
2024/01/03 17:06:28;;;;;;;2.60;1.30;;;10.30;99.90;;;;;;5099811;28;20415;-80
2024/01/03 17:09:00;;;;;;;3.57;1.60;;;10.30;99.90;;;;;;5095564;28;20444;-80
2024/01/03 17:11:35;;;;;;;5.13;1.30;;;;;;;;;;5110806;28;20456;-83
2024/01/03 17:14:17;;;;;;;1.63;1.53;;;10.40;99.90;;;;;;5107228;28;20419;-81
2024/01/03 17:16:54;;;;;;;1.30;1.20;;;10.40;99.90;;;;;;5103489;28;20561;-79
2024/01/03 17:19:28;;;;;;;3.40;1.30;;;10.50;99.90;;;;;;5087498;28;20980;-83
2024/01/03 17:22:27;;;;;;;1.50;1.23;;;10.40;99.90;;;;;;5088447;28;21162;-82
2024/01/03 17:25:06;;;;;;;1.90;1.80;;;10.30;99.90;;;;;;5060486;28;20495;-83
2024/01/03 17:27:47;;;;;;;1.93;1.00;;;10.50;99.90;;;;;;5084131;28;20479;-80
2024/01/03 17:30:30;;;;;;;2.23;1.10;;;10.70;99.90;;;;;;5091812;28;20449;-79
2024/01/03 17:33:14;;;;;;;1.17;1.13;;;11.00;99.90;;;;;;5093872;28;20528;-82
2024/01/03 17:46:18;;;;;;;1.23;1.10;;;10.50;99.90;;;;;;5071942;28;20488;-81
2024/01/03 17:59:10;;;;;;;1.73;1.00;;;9.90;99.90;;;;;;5077727;28;20957;-78
2024/01/03 18:08:28;;;;;;;;;;;;;;;;;;;;;
2024/01/03 18:11:26;;;;;;;1.53;1.37;;;9.40;99.90;;;;;;5097884;28;20455;-79
2024/01/03 18:14:28;;;;;;;1.70;1.10;;;9.30;99.90;;;;;;5097282;28;20442;-78
2024/01/03 18:17:22;;;;;;;1.13;1.00;;;9.20;99.90;;;;;;5094406;28;20835;-77
2024/01/03 18:20:08;;;;;;;3.80;1.20;;;9.10;99.90;;;;;;5089947;28;20446;-79
2024/01/03 18:22:46;;;;;;;0.80;0.80;;;9.10;99.90;;;;;;5097248;28;20526;-78
2024/01/03 18:25:49;;;;;;;0.93;0.90;;;9.00;99.90;;;;;;5104463;28;20497;-82
2024/01/03 18:28:49;;;;;;;1.30;1.20;;;8.90;99.90;;;;;;5105502;28;20440;-80
2024/01/03 18:31:54;;;;;;;0.80;0.80;;;8.90;99.90;;;;;;5101469;28;20887;-79
2024/01/03 18:38:35;;;;;;;;;;;;;;;;;;;;;
2024/01/03 18:48:47;;;;;;;0.80;0.80;;;8.50;99.90;;;;;;4998769;28;20436;-79
2024/01/03 18:54:27;;;;;;;1.03;1.03;;;8.50;99.90;;;;;;5102424;28;20778;-80
2024/01/03 18:57:30;;;;;;;1.40;1.00;;;8.70;99.90;;;;;;5107668;28;20419;-81
2024/01/03 19:04:00;;;;;;;;;;;;;;;;;;;;;
2024/01/03 19:10:03;;;;;;;1.00;1.00;;;8.50;99.90;;;;;;4987247;28;20446;-79
2024/01/03 19:12:47;;;;;;;1.07;1.07;;;8.70;99.90;;;;;;5093108;28;20442;-79
2024/01/03 19:15:37;;;;;;;0.90;0.90;;;8.60;99.90;;;;;;5095582;28;20455;-81
2024/01/03 19:18:11;;;;;;;0.97;0.93;;;8.60;99.90;;;;;;5096892;28;20469;-79
2024/01/03 19:21:00;;;;;;;0.80;0.80;;;8.60;99.90;;;;;;5109285;28;20449;-80
2024/01/03 19:24:15;;;;;;;1.00;1.00;;;8.60;99.90;;;;;;5108673;28;20462;-80
2024/01/03 19:26:57;;;;;;;0.80;0.80;;;8.60;99.90;;;;;;5105960;28;20452;-83
2024/01/03 19:29:40;;;;;;;0.87;0.87;;;8.70;99.90;;;;;;5109398;28;20454;-80
2024/01/03 19:32:31;;;;;;;0.80;0.80;;;8.70;99.90;;;;;;5104910;28;20505;-80
2024/01/03 19:35:18;;;;;;;0.90;0.90;;;8.80;99.90;;;;;;5089940;28;20458;-81
2024/01/03 19:38:02;;;;;;;1.30;1.10;;;8.80;99.90;;;;;;5092724;28;20441;-81
2024/01/03 19:40:41;;;;;;;1.07;0.90;;;8.40;99.90;;;;;;5097830;28;20503;-81
2024/01/03 19:46:35;;;;;;;1.33;1.23;;;8.70;99.90;;;;;;5095659;28;20467;-80
2024/01/03 19:49:21;;;;;;;0.70;0.70;;;8.80;99.90;;;;;;5091511;28;20516;-80
2024/01/03 19:51:52;;;;;;;2.00;0.77;;;8.80;99.90;;;;;;5084149;28;20500;-79
2024/01/03 19:54:24;;;;;;;0.90;0.90;;;8.70;99.90;;;;;;5083574;28;20521;-80
2024/01/03 19:57:03;;;;;;;1.20;1.17;;;8.80;99.90;;;;;;5094845;28;20467;-80
2024/01/03 19:59:40;;;;;;;0.80;0.80;;;8.80;99.90;;;;;;5094367;28;20518;-80
2024/01/03 20:02:22;;;;;;;1.10;1.00;;;9.00;99.90;;;;;;5099169;28;20493;-81
2024/01/03 20:04:53;;;;;;;1.30;1.20;;;8.80;99.90;;;;;;5098666;28;20520;-80
2024/01/03 20:07:30;;;;;;;1.50;1.10;;;8.80;99.90;;;;;;5100852;28;20538;-80
2024/01/03 20:10:10;;;;;;;2.83;1.27;;;8.70;99.90;;;;;;5093930;28;20442;-81
2024/01/03 20:12:49;;;;;;;1.47;1.47;;;8.70;99.90;;;;;;5098471;28;20470;-80
2024/01/03 20:15:24;;;;;;;3.27;0.97;;;8.90;99.90;;;;;;5091917;28;20902;-80
2024/01/03 20:17:59;;;;;;;1.20;1.10;;;8.90;99.90;;;;;;5093617;28;20452;-81
2024/01/03 20:20:57;;;;;;;2.00;1.00;;;8.90;99.90;;;;;;5101620;28;20462;-81
2024/01/03 20:23:34;;;;;;;1.07;0.90;;;8.90;99.90;;;;;;5098155;28;20444;-80
2024/01/03 20:26:36;;;;;;;1.23;0.87;;;8.90;99.90;;;;;;5094413;28;20485;-80
2024/01/03 20:29:09;;;;;;;0.80;0.80;;;8.90;99.90;;;;;;5081144;28;20689;-81
2024/01/03 20:31:47;;;;;;;2.13;1.07;;;9.00;99.90;;;;;;5085823;28;20520;-79
2024/01/03 20:34:29;;;;;;;0.77;0.77;;;8.90;99.90;;;;;;5086173;28;20501;-81
2024/01/03 20:37:13;;;;;;;1.30;0.97;;;8.80;99.90;;;;;;5088453;28;20444;-80
2024/01/03 20:39:47;;;;;;;1.90;1.10;;;8.80;99.90;;;;;;5088542;28;20445;-81
2024/01/03 20:42:45;;;;;;;1.77;0.90;;;8.80;99.90;;;;;;5087524;28;20460;-81
2024/01/03 20:48:07;;;;;;;1.13;0.80;;;8.80;99.90;;;;;;5089154;28;20447;-81
2024/01/03 20:50:56;;;;;;;1.07;0.90;;;8.80;99.90;;;;;;5082065;28;20454;-79
2024/01/03 20:53:28;;;;;;;2.93;1.10;;;8.80;99.90;;;;;;5087323;28;20553;-80
2024/01/03 20:56:12;;;;;;;1.47;0.90;;;8.90;99.90;;;;;;5088540;28;20530;-81
2024/01/03 20:58:51;;;;;;;1.23;0.90;;;8.80;99.90;;;;;;5086491;28;20433;-80
2024/01/03 21:01:27;;;;;;;1.10;0.93;;;8.80;99.90;;;;;;5083109;28;20459;-81
2024/01/03 21:04:07;;;;;;;1.87;1.10;;;8.80;99.90;;;;;;5090175;28;20536;-81
2024/01/03 21:06:56;;;;;;;1.17;0.90;;;8.80;99.90;;;;;;5088501;28;20476;-80
2024/01/03 21:09:37;;;;;;;2.20;0.90;;;8.90;99.90;;;;;;5090055;28;20461;-80
2024/01/03 21:12:13;;;;;;;1.03;0.93;;;9.10;99.90;;;;;;5084888;28;20546;-79
2024/01/03 21:14:59;;;;;;;2.40;1.43;;;9.00;99.90;;;;;;5080842;28;20515;-79
2024/01/03 21:17:38;;;;;;;1.00;0.90;;;9.10;99.90;;;;;;5076899;28;20452;-80
2024/01/03 21:20:19;;;;;;;4.63;1.33;;;9.10;99.90;;;;;;5076258;28;20449;-80
2024/01/03 21:23:05;;;;;;;2.20;1.30;;;9.10;99.90;;;;;;5076713;28;20881;-80
2024/01/03 21:25:37;;;;;;;1.83;1.00;;;9.10;99.90;;;;;;5075739;28;20554;-80
2024/01/03 21:28:15;;;;;;;4.33;1.63;;;9.10;99.90;;;;;;5074994;28;20461;-81
2024/01/03 21:31:03;;;;;;;2.63;1.00;;;9.10;99.90;;;;;;5076323;28;20459;-78
2024/01/03 21:33:46;;;;;;;2.60;1.23;;;9.10;99.90;;;;;;5075489;28;20444;-79
2024/01/03 21:36:28;;;;;;;1.57;1.43;;;9.30;99.90;;;;;;5083710;28;20436;-81
2024/01/03 21:39:18;;;;;;;;;;;;;;;;;;;;;
2024/01/03 21:42:10;;;;;;;1.97;1.07;;;9.10;99.90;;;;;;5084134;28;20558;-79
2024/01/03 21:44:50;;;;;;;0.93;0.80;;;9.00;99.90;;;;;;5086309;28;20463;-81
2024/01/03 21:47:30;;;;;;;1.93;1.03;;;8.70;99.90;;;;;;5086338;28;20474;-81
2024/01/03 21:50:17;;;;;;;2.93;1.33;;;9.10;99.90;;;;;;5084920;28;20448;-80
2024/01/03 21:53:14;;;;;;;2.30;1.10;;;9.10;99.90;;;;;;5086451;28;20475;-80
2024/01/03 21:55:47;;;;;;;1.53;1.00;;;9.00;99.90;;;;;;5085039;28;20479;-80
2024/01/03 22:01:27;;;;;;;2.30;1.30;;;9.10;99.90;;;;;;5072910;28;20812;-81
2024/01/03 22:04:16;;;;;;;2.67;1.20;;;9.20;99.90;;;;;;5081417;28;20455;-81
2024/01/03 22:07:01;;;;;;;2.20;0.97;;;9.00;99.90;;;;;;5084305;28;20476;-80
2024/01/03 22:09:59;;;;;;;1.17;1.17;;;9.00;99.90;;;;;;5082686;28;20474;-80
2024/01/03 22:12:47;;;;;;;3.90;1.00;;;9.00;99.90;;;;;;5083441;28;20461;-82
2024/01/03 22:15:22;;;;;;;1.00;1.00;;;9.00;99.90;;;;;;5083671;28;20520;-81
2024/01/03 22:18:03;;;;;;;2.17;1.00;;;8.80;99.90;;;;;;5083724;28;20543;-80
2024/01/03 22:20:47;;;;;;;4.53;3.60;;;9.10;99.90;;;;;;5083761;28;20464;-82
2024/01/03 22:23:21;;;;;;;1.13;1.13;;;9.10;99.90;;;;;;5083594;28;20918;-80
2024/01/03 22:26:00;;;;;;;1.53;1.37;;;9.30;99.90;;;;;;5084776;28;21027;-80
2024/01/03 22:28:41;;;;;;;3.93;1.27;;;9.00;99.90;;;;;;5084185;28;20902;-81
2024/01/03 22:31:18;;;;;;;4.10;1.30;;;9.00;99.90;;;;;;5084272;28;20469;-82
2024/01/03 22:34:00;;;;;;;1.20;1.00;;;9.00;99.90;;;;;;5082944;28;20462;-81
2024/01/03 22:36:36;;;;;;;1.93;1.20;;;9.00;99.90;;;;;;5084434;28;20452;-81
2024/01/03 22:39:15;;;;;;;2.73;1.30;;;9.20;99.90;;;;;;5083438;28;20449;-80
2024/01/03 22:44:35;;;;;;;1.27;0.90;;;8.70;99.90;;;;;;5070715;28;20957;-79
2024/01/03 22:47:15;;;;;;;2.10;0.90;;;9.10;99.90;;;;;;5080363;28;20470;-80
2024/01/03 22:49:55;;;;;;;3.10;1.20;;;9.10;99.90;;;;;;5079760;28;20550;-79
2024/01/03 22:52:43;;;;;;;4.20;1.23;;;9.30;99.90;;;;;;5079594;28;20861;-80
2024/01/03 22:55:20;;;;;;;1.03;0.70;;;9.10;99.90;;;;;;5080431;28;20454;-80
2024/01/03 22:57:59;;;;;;;1.30;0.90;;;9.10;99.90;;;;;;5079517;28;20516;-80
2024/01/03 23:00:33;;;;;;;1.17;1.00;;;9.10;99.90;;;;;;5080002;28;20451;-80
2024/01/03 23:03:17;;;;;;;1.80;0.80;;;9.10;99.90;;;;;;5080146;28;20452;-81
2024/01/03 23:05:58;;;;;;;4.10;1.50;;;9.10;99.90;;;;;;5082316;28;20497;-80
2024/01/03 23:08:34;;;;;;;1.50;0.80;;;9.00;99.90;;;;;;5080693;28;20511;-79
2024/01/03 23:11:11;;;;;;;3.27;1.30;;;9.40;99.90;;;;;;5083547;28;20477;-80
2024/01/03 23:13:56;;;;;;;1.10;0.80;;;9.30;99.90;;;;;;5093199;28;20424;-79
2024/01/03 23:16:32;;;;;;;2.20;1.20;;;9.00;99.90;;;;;;5082722;28;20437;-80
2024/01/03 23:19:17;;;;;;;2.53;1.47;;;9.20;99.90;;;;;;5099837;28;20422;-80
2024/01/03 23:21:54;;;;;;;2.33;1.20;;;8.90;99.90;;;;;;5096062;28;20984;-80
2024/01/03 23:24:35;;;;;;;0.97;0.97;;;8.90;99.90;;;;;;5099181;28;20438;-80
2024/01/03 23:27:14;;;;;;;0.80;0.80;;;8.60;99.90;;;;;;5093776;28;20472;-79
2024/01/03 23:29:43;;;;;;;3.20;0.90;;;8.90;99.90;;;;;;5094095;28;20442;-79
2024/01/03 23:32:35;;;;;;;2.67;1.07;;;8.90;99.90;;;;;;5088429;28;20462;-79
2024/01/03 23:35:14;;;;;;;1.30;0.93;;;8.90;99.90;;;;;;5092638;28;20459;-79
2024/01/03 23:37:49;;;;;;;3.33;1.13;;;8.90;99.90;;;;;;5106724;28;20526;-80
2024/01/03 23:40:28;;;;;;;1.07;1.00;;;9.20;99.90;;;;;;5086556;28;20470;-80
2024/01/03 23:43:00;;;;;;;1.40;1.10;;;9.20;99.90;;;;;;5085311;28;20790;-79
2024/01/03 23:48:28;;;;;;;1.40;0.83;;;8.90;99.90;;;;;;5086490;28;20443;-79
2024/01/03 23:51:25;;;;;;;1.80;0.83;;;8.90;99.90;;;;;;5084563;28;20459;-78
2024/01/03 23:53:56;;;;;;;2.40;0.80;;;8.90;99.90;;;;;;5084346;28;20451;-79
2024/01/03 23:56:29;;;;;;;2.30;1.23;;;9.00;99.90;;;;;;5085600;28;20456;-80
2024/01/03 23:59:15;;;;;;;1.00;0.90;;;8.70;99.90;;;;;;5085820;28;20444;-79
